Time;durP1;ratioP1;P1;durP2;ratioP2;P2;SDS_P1;SDS_P2;PMS_P1;PMS_P2;Temp;Humidity;BMP_temperature;BMP_pressure;BME280_temperature;BME280_humidity;BME280_pressure;Samples;Min_cycle;Max_cycle;Signal;HPM_P1;HPM_P2
2022/09/20 00:00:41;;;;;;;;;;;;;;;13.08;78.63;101240.38;5086029;28;20295;-75
2022/09/20 00:03:07;;;;;;;;;;;;;;;12.57;81.15;101239.56;5092518;28;19991;-75
2022/09/20 00:05:34;;;;;;;;;;;;;;;12.71;80.69;101252.00;5093915;28;19977;-75
2022/09/20 00:08:02;;;;;;;;;;;;;;;13.13;78.51;101243.63;5088558;28;19937;-76
2022/09/20 00:10:29;;;;;;;;;;;;;;;12.88;78.97;101244.06;5087484;28;19924;-76
2022/09/20 00:12:56;;;;;;;;;;;;;;;12.96;79.09;101246.28;5096779;28;20019;-79
2022/09/20 00:15:22;;;;;;;;;;;;;;;13.21;77.71;101249.34;5087919;28;19940;-79
2022/09/20 00:17:49;;;;;;;;;;;;;;;13.20;77.04;101245.00;5091990;28;19924;-79
2022/09/20 00:20:15;;;;;;;;;;;;;;;12.98;77.55;101245.25;5109174;28;20333;-79
2022/09/20 00:22:41;;;;;;;;;;;;;;;13.04;77.78;101249.38;5098015;28;19924;-79
2022/09/20 00:25:09;;;;;;;;;;;;;;;13.09;77.05;101252.59;5086340;28;19932;-79
2022/09/20 00:27:35;;;;;;;;;;;;;;;12.67;78.52;101261.81;5089359;28;19977;-79
2022/09/20 00:30:02;;;;;;;;;;;;;;;12.74;77.27;101251.84;5101483;28;20341;-79
2022/09/20 00:32:28;;;;;;;;;;;;;;;12.45;78.59;101255.97;5100547;28;20345;-80
2022/09/20 00:35:09;;;;;;;;;;;;;;;12.56;78.77;101261.53;5088961;28;19981;-78
2022/09/20 00:37:36;;;;;;;;;;;;;;;12.73;77.11;101257.19;5088728;28;19931;-79
2022/09/20 00:40:02;;;;;;;;;;;;;;;12.90;76.25;101262.38;5084212;28;19923;-78
2022/09/20 00:42:30;;;;;;;;;;;;;;;12.47;77.42;101254.13;5066723;28;19924;-79
2022/09/20 00:44:58;;;;;;;;;;;;;;;12.24;78.52;101257.06;5067509;28;19925;-79
2022/09/20 00:47:28;;;;;;;;;;;;;;;12.28;78.78;101260.38;5066522;28;20384;-79
2022/09/20 00:49:56;;;;;;;;;;;;;;;12.01;80.00;101262.63;5080548;28;19924;-79
2022/09/20 00:52:23;;;;;;;;;;;;;;;11.98;80.12;101260.97;5078906;28;20438;-79
2022/09/20 00:54:50;;;;;;;;;;;;;;;11.93;80.60;101260.38;5087926;28;19924;-79
2022/09/20 00:57:17;;;;;;;;;;;;;;;12.01;79.89;101260.00;5088464;28;20379;-79
2022/09/20 00:59:46;;;;;;;;;;;;;;;12.25;79.24;101257.91;5084716;28;19924;-79
2022/09/20 01:02:15;;;;;;;;;;;;;;;12.26;78.51;101263.09;5089075;28;19928;-79
2022/09/20 01:04:43;;;;;;;;;;;;;;;12.30;78.40;101261.16;5086952;28;19924;-80
2022/09/20 01:07:10;;;;;;;;;;;;;;;11.93;80.11;101263.00;5087127;28;20337;-79
2022/09/20 01:09:37;;;;;;;;;;;;;;;12.07;79.66;101262.31;5075217;28;19925;-78
2022/09/20 01:12:04;;;;;;;;;;;;;;;12.21;78.68;101262.47;5078522;28;19928;-79
2022/09/20 01:14:31;;;;;;;;;;;;;;;11.94;79.76;101263.81;5085466;28;19924;-80
2022/09/20 01:17:02;;;;;;;;;;;;;;;11.94;79.92;101267.31;5084351;28;19924;-77
2022/09/20 01:19:33;;;;;;;;;;;;;;;11.89;79.31;101266.69;5085736;28;19924;-76
2022/09/20 01:22:02;;;;;;;;;;;;;;;12.19;78.19;101262.53;5097698;28;19924;-77
2022/09/20 01:24:34;;;;;;;;;;;;;;;12.14;78.25;101263.72;5089208;28;19924;-78
2022/09/20 01:27:08;;;;;;;;;;;;;;;12.20;77.97;101255.50;5085622;28;19924;-77
2022/09/20 01:29:40;;;;;;;;;;;;;;;12.19;78.09;101261.72;5086757;28;20364;-77
2022/09/20 01:32:11;;;;;;;;;;;;;;;12.18;77.58;101271.38;5087758;28;20398;-78
2022/09/20 01:34:42;;;;;;;;;;;;;;;11.89;78.94;101264.06;5092704;28;19930;-80
2022/09/20 01:37:14;;;;;;;;;;;;;;;12.04;77.97;101267.72;5086592;28;19936;-79
2022/09/20 01:39:46;;;;;;;;;;;;;;;12.14;77.50;101266.34;5084408;28;19928;-79
2022/09/20 01:42:13;;;;;;;;;;;;;;;12.01;78.23;101265.25;5080342;28;19925;-79
2022/09/20 01:44:45;;;;;;;;;;;;;;;11.99;78.99;101270.56;5084987;28;19928;-79
2022/09/20 01:47:20;;;;;;;;;;;;;;;12.16;77.87;101267.09;5093226;28;19931;-76
2022/09/20 01:49:51;;;;;;;;;;;;;;;11.57;80.47;101270.81;5100414;28;19969;-77
2022/09/20 01:52:36;;;;;;;;;;;;;;;11.87;80.33;101272.94;5097814;28;19924;-77
2022/09/20 01:55:30;;;;;;;;;;;;;;;11.61;80.32;101271.53;5086455;28;19924;-77
2022/09/20 01:58:11;;;;;;;;;;;;;;;11.64;80.82;101277.50;5087360;28;19924;-77
2022/09/20 02:00:46;;;;;;;;;;;;;;;11.89;79.75;101271.09;5029530;28;20556;-80
2022/09/20 02:03:28;;;;;;;;;;;;;;;12.27;78.60;101275.31;5087240;28;19924;-80
2022/09/20 02:06:19;;;;;;;;;;;;;;;11.84;80.76;101275.72;5077020;28;20334;-80
2022/09/20 02:09:00;;;;;;;;;;;;;;;11.94;81.20;101279.59;5085889;28;20497;-79
2022/09/20 02:11:30;;;;;;;;;;;;;;;11.60;83.17;101280.34;5066597;28;19932;-79
2022/09/20 02:14:22;;;;;;;;;;;;;;;11.72;83.37;101285.03;5085303;28;20384;-79
2022/09/20 02:16:50;;;;;;;;;;;;;;;11.89;82.39;101281.63;5086203;28;19958;-77
2022/09/20 02:19:35;;;;;;;;;;;;;;;11.80;83.57;101277.66;5084359;28;19932;-76
2022/09/20 02:22:08;;;;;;;;;;;;;;;11.90;83.08;101285.97;5091921;28;19928;-76
2022/09/20 02:24:38;;;;;;;;;;;;;;;11.52;84.35;101287.75;5088408;28;20369;-77
2022/09/20 02:27:11;;;;;;;;;;;;;;;11.68;85.22;101289.56;5079648;28;20383;-78
2022/09/20 02:29:44;;;;;;;;;;;;;;;11.92;83.70;101291.97;5083415;28;19924;-78
2022/09/20 02:32:26;;;;;;;;;;;;;;;11.99;83.73;101293.38;5085276;28;19924;-75
2022/09/20 02:35:10;;;;;;;;;;;;;;;11.88;84.00;101290.41;5077852;28;19924;-74
2022/09/20 02:37:45;;;;;;;;;;;;;;;11.74;84.58;101293.72;5084202;28;19928;-74
2022/09/20 02:40:19;;;;;;;;;;;;;;;11.92;84.06;101295.47;5083565;28;19924;-74
2022/09/20 02:42:48;;;;;;;;;;;;;;;12.43;81.90;101297.28;5094795;28;19972;-74
2022/09/20 02:45:18;;;;;;;;;;;;;;;12.19;82.39;101299.34;5105113;28;20008;-76
2022/09/20 02:47:47;;;;;;;;;;;;;;;12.18;82.96;101295.03;5089736;28;19982;-74
2022/09/20 02:50:19;;;;;;;;;;;;;;;12.49;81.60;101298.78;5083641;28;20380;-74
2022/09/20 02:52:52;;;;;;;;;;;;;;;12.62;80.87;101305.94;5092321;28;19924;-74
2022/09/20 02:55:24;;;;;;;;;;;;;;;12.72;80.17;101306.31;5091102;28;20455;-75
2022/09/20 02:57:54;;;;;;;;;;;;;;;12.78;79.82;101300.75;5084689;28;20323;-75
2022/09/20 03:00:23;;;;;;;;;;;;;;;13.11;78.67;101303.44;5084902;28;19924;-75
2022/09/20 03:02:55;;;;;;;;;;;;;;;13.05;78.97;101299.28;5083864;28;20387;-75
2022/09/20 03:05:24;;;;;;;;;;;;;;;13.00;78.99;101298.72;5084383;28;20333;-75
2022/09/20 03:07:58;;;;;;;;;;;;;;;13.27;77.42;101304.28;5084586;28;19928;-75
2022/09/20 03:10:27;;;;;;;;;;;;;;;13.08;78.76;101304.38;5087726;28;19924;-76
2022/09/20 03:13:00;;;;;;;;;;;;;;;13.03;78.63;101305.56;5101066;28;19923;-75
2022/09/20 03:15:31;;;;;;;;;;;;;;;13.26;78.12;101297.34;5108789;28;19930;-76
2022/09/20 03:18:06;;;;;;;;;;;;;;;12.86;79.81;101313.53;5104581;28;19924;-75
2022/09/20 03:20:36;;;;;;;;;;;;;;;12.75;80.11;101307.97;5084838;28;19931;-76
2022/09/20 03:23:10;;;;;;;;;;;;;;;12.75;80.38;101310.59;5095619;28;20417;-75
2022/09/20 03:25:46;;;;;;;;;;;;;;;12.88;79.97;101304.59;5089988;28;19924;-75
2022/09/20 03:28:22;;;;;;;;;;;;;;;12.95;80.00;101303.34;5089774;28;19924;-78
2022/09/20 03:30:55;;;;;;;;;;;;;;;13.20;78.86;101315.22;5069195;28;19978;-78
2022/09/20 03:33:29;;;;;;;;;;;;;;;13.30;78.23;101311.19;5091235;28;19924;-78
2022/09/20 03:36:03;;;;;;;;;;;;;;;12.75;80.58;101318.47;5081029;28;19949;-78
2022/09/20 03:38:44;;;;;;;;;;;;;;;12.34;82.41;101321.41;5088100;28;19924;-78
2022/09/20 03:41:20;;;;;;;;;;;;;;;12.31;83.28;101313.66;5083828;28;19928;-78
2022/09/20 03:43:56;;;;;;;;;;;;;;;12.43;82.68;101315.69;5093272;28;20027;-78
2022/09/20 03:46:25;;;;;;;;;;;;;;;12.47;82.34;101321.66;5089321;28;19931;-78
2022/09/20 03:49:10;;;;;;;;;;;;;;;12.41;82.25;101317.56;5087258;28;19924;-78
2022/09/20 03:51:43;;;;;;;;;;;;;;;12.25;83.00;101321.00;5088945;28;19924;-78
2022/09/20 03:54:18;;;;;;;;;;;;;;;12.14;83.95;101309.25;5086065;28;20425;-78
2022/09/20 03:56:55;;;;;;;;;;;;;;;12.44;82.02;101324.44;5088830;28;19924;-78
2022/09/20 03:59:30;;;;;;;;;;;;;;;12.71;81.57;101320.44;5087382;28;19928;-78
2022/09/20 04:02:15;;;;;;;;;;;;;;;12.67;81.40;101317.06;5088731;28;21437;-78
2022/09/20 04:04:46;;;;;;;;;;;;;;;12.91;80.55;101332.53;5083981;28;19928;-78
2022/09/20 04:07:17;;;;;;;;;;;;;;;13.02;80.52;101336.31;5089823;28;20371;-78
2022/09/20 04:09:51;;;;;;;;;;;;;;;12.88;80.54;101328.28;5089233;28;19951;-78
2022/09/20 04:12:23;;;;;;;;;;;;;;;12.94;80.13;101329.72;5094627;28;19924;-76
2022/09/20 04:14:53;;;;;;;;;;;;;;;12.54;81.85;101336.19;5108371;28;20279;-76
2022/09/20 04:17:26;;;;;;;;;;;;;;;12.83;80.87;101332.06;5107199;28;19924;-76
2022/09/20 04:19:57;;;;;;;;;;;;;;;12.61;81.76;101335.81;5107860;28;20394;-77
2022/09/20 04:22:28;;;;;;;;;;;;;;;12.61;81.14;101335.81;5104591;28;19923;-77
2022/09/20 04:24:56;;;;;;;;;;;;;;;12.54;82.22;101334.41;5088631;28;19974;-77
2022/09/20 04:27:25;;;;;;;;;;;;;;;12.53;82.01;101332.72;5084448;28;19950;-80
2022/09/20 04:29:55;;;;;;;;;;;;;;;12.86;80.79;101329.31;5087981;28;19924;-80
2022/09/20 04:32:24;;;;;;;;;;;;;;;12.96;79.72;101335.78;5094488;28;19924;-80
2022/09/20 04:37:40;;;;;;;;;;;;;;;12.64;81.46;101337.41;5089012;28;20066;-78
2022/09/20 04:40:15;;;;;;;;;;;;;;;12.97;80.38;101338.31;5088359;28;20007;-78
2022/09/20 04:42:59;;;;;;;;;;;;;;;12.94;79.86;101343.75;5068682;28;19929;-78
2022/09/20 04:45:50;;;;;;;;;;;;;;;12.74;81.17;101348.34;5068427;28;19947;-78
2022/09/20 04:48:30;;;;;;;;;;;;;;;12.88;80.70;101353.75;5067754;28;19925;-79
2022/09/20 04:51:08;;;;;;;;;;;;;;;13.18;79.18;101357.47;5073959;28;19928;-79
2022/09/20 04:53:43;;;;;;;;;;;;;;;12.90;80.47;101358.00;5088691;28;19931;-79
2022/09/20 04:56:18;;;;;;;;;;;;;;;13.25;79.18;101356.22;5088152;28;20007;-79
2022/09/20 04:58:48;;;;;;;;;;;;;;;13.15;79.09;101358.47;5088349;28;19924;-79
2022/09/20 05:01:34;;;;;;;;;;;;;;;12.68;80.92;101365.28;5087767;28;19995;-79
2022/09/20 05:04:18;;;;;;;;;;;;;;;12.86;80.46;101366.16;5072588;28;19924;-79
2022/09/20 05:07:03;;;;;;;;;;;;;;;12.66;80.36;101373.28;5046147;28;19973;-79
2022/09/20 05:09:46;;;;;;;;;;;;;;;12.84;80.32;101371.47;5088180;28;19932;-79
2022/09/20 05:12:36;;;;;;;;;;;;;;;12.85;80.16;101369.72;5087806;28;20276;-79
2022/09/20 05:15:22;;;;;;;;;;;;;;;12.88;80.34;101375.66;5082791;28;20394;-79
2022/09/20 05:18:10;;;;;;;;;;;;;;;12.85;79.71;101380.25;5081137;28;19936;-79
2022/09/20 05:20:43;;;;;;;;;;;;;;;12.80;80.55;101379.59;5078410;28;19924;-78
2022/09/20 05:23:24;;;;;;;;;;;;;;;12.83;79.72;101387.34;5100090;28;19970;-77
2022/09/20 05:25:58;;;;;;;;;;;;;;;12.92;79.46;101381.63;5086632;28;19982;-77
2022/09/20 05:28:27;;;;;;;;;;;;;;;12.95;79.53;101386.72;5086722;28;19928;-77
2022/09/20 05:30:57;;;;;;;;;;;;;;;13.07;78.58;101389.59;5085949;28;19986;-78
2022/09/20 05:33:26;;;;;;;;;;;;;;;13.27;77.21;101385.94;5086265;28;20436;-81
2022/09/20 05:35:59;;;;;;;;;;;;;;;13.11;77.93;101392.94;5086858;28;19985;-79
2022/09/20 05:38:29;;;;;;;;;;;;;;;12.58;80.24;101393.00;5086308;28;20459;-77
2022/09/20 05:41:03;;;;;;;;;;;;;;;12.46;80.46;101383.91;5084625;28;19925;-79
2022/09/20 05:43:31;;;;;;;;;;;;;;;12.45;80.41;101387.47;5085685;28;20245;-79
2022/09/20 05:46:15;;;;;;;;;;;;;;;12.42;80.67;101389.41;5084870;28;19924;-77
2022/09/20 05:48:49;;;;;;;;;;;;;;;12.83;79.38;101398.72;5078126;28;19928;-77
2022/09/20 05:51:21;;;;;;;;;;;;;;;12.66;79.92;101404.00;5083337;28;19924;-77
2022/09/20 05:53:57;;;;;;;;;;;;;;;12.92;79.59;101410.56;5080962;28;20402;-77
2022/09/20 05:56:34;;;;;;;;;;;;;;;13.06;79.72;101408.09;5085463;28;20433;-78
2022/09/20 05:59:05;;;;;;;;;;;;;;;13.23;78.28;101410.72;5083424;28;19928;-77
2022/09/20 06:01:33;;;;;;;;;;;;;;;12.74;79.66;101403.63;5086440;28;19950;-76
2022/09/20 06:04:08;;;;;;;;;;;;;;;12.78;80.14;101415.69;5088328;28;20296;-76
2022/09/20 06:06:41;;;;;;;;;;;;;;;13.03;79.90;101410.88;5085155;28;19924;-80
2022/09/20 06:09:29;;;;;;;;;;;;;;;13.28;79.09;101415.75;5085081;28;19928;-75
2022/09/20 06:12:14;;;;;;;;;;;;;;;13.56;77.53;101408.94;5085831;28;19924;-76
2022/09/20 06:14:46;;;;;;;;;;;;;;;13.48;77.54;101405.91;5085890;28;19975;-76
2022/09/20 06:17:23;;;;;;;;;;;;;;;13.52;76.63;101411.84;5086535;28;19924;-77
2022/09/20 06:19:52;;;;;;;;;;;;;;;13.45;76.84;101421.00;5085268;28;19960;-77
2022/09/20 06:22:21;;;;;;;;;;;;;;;13.51;77.13;101418.91;5086766;28;20309;-79
2022/09/20 06:24:51;;;;;;;;;;;;;;;13.59;76.87;101426.41;5085570;28;19924;-80
2022/09/20 06:27:19;;;;;;;;;;;;;;;13.80;76.70;101430.50;5086433;28;19989;-79
2022/09/20 06:29:49;;;;;;;;;;;;;;;13.90;76.50;101429.06;5084011;28;19936;-77
2022/09/20 06:32:16;;;;;;;;;;;;;;;14.16;75.02;101432.91;5095728;28;19924;-73
2022/09/20 06:34:42;;;;;;;;;;;;;;;14.18;75.32;101427.56;5086093;28;19935;-72
2022/09/20 06:42:52;;;;;;;;;;;;;;;14.24;74.68;101441.25;5085487;28;21405;-74
2022/09/20 06:45:20;;;;;;;;;;;;;;;13.72;75.95;101443.25;5082692;28;19924;-74
2022/09/20 06:47:46;;;;;;;;;;;;;;;13.52;75.80;101436.41;5085569;28;20514;-73
2022/09/20 06:50:15;;;;;;;;;;;;;;;13.52;75.50;101444.31;5085070;28;20049;-72
2022/09/20 06:52:41;;;;;;;;;;;;;;;13.70;74.56;101439.00;5089234;28;19928;-73
2022/09/20 06:55:14;;;;;;;;;;;;;;;13.83;74.70;101447.94;5085016;28;20086;-73
2022/09/20 06:57:41;;;;;;;;;;;;;;;14.03;74.71;101455.63;5085921;28;20341;-73
2022/09/20 07:00:11;;;;;;;;;;;;;;;14.14;74.51;101462.03;5083492;28;19950;-74
2022/09/20 07:02:38;;;;;;;;;;;;;;;14.05;75.26;101459.03;5084908;28;20160;-73
2022/09/20 07:05:06;;;;;;;;;;;;;;;13.81;75.00;101455.94;5080374;28;20350;-73
2022/09/20 07:07:32;;;;;;;;;;;;;;;14.11;73.25;101461.34;5082236;28;19924;-73
2022/09/20 07:09:58;;;;;;;;;;;;;;;13.81;73.48;101458.59;5083727;28;19924;-73
2022/09/20 07:12:25;;;;;;;;;;;;;;;14.19;73.51;101466.19;5081869;28;19973;-73
2022/09/20 07:14:51;;;;;;;;;;;;;;;14.70;71.86;101457.16;5083261;28;19928;-74
2022/09/20 07:17:17;;;;;;;;;;;;;;;15.02;74.31;101462.28;5082468;28;19977;-73
2022/09/20 07:19:45;;;;;;;;;;;;;;;15.52;71.03;101474.31;5083926;28;19924;-74
2022/09/20 07:22:11;;;;;;;;;;;;;;;15.70;69.03;101470.53;5084862;28;20117;-73
2022/09/20 07:24:39;;;;;;;;;;;;;;;15.47;68.60;101478.97;5084520;28;19932;-73
2022/09/20 07:27:06;;;;;;;;;;;;;;;15.74;68.13;101472.03;5085977;28;19931;-73
2022/09/20 07:29:33;;;;;;;;;;;;;;;15.57;67.64;101473.06;5082061;28;19963;-73
2022/09/20 07:32:00;;;;;;;;;;;;;;;16.16;66.81;101480.88;5084226;28;19932;-75
2022/09/20 07:34:26;;;;;;;;;;;;;;;16.86;65.13;101487.81;5085521;28;19928;-73
2022/09/20 07:36:56;;;;;;;;;;;;;;;16.91;63.96;101489.22;5083412;28;19924;-73
2022/09/20 07:39:22;;;;;;;;;;;;;;;16.99;64.58;101480.78;5102938;28;19973;-71
2022/09/20 07:41:49;;;;;;;;;;;;;;;16.34;65.62;101477.06;5099286;28;19924;-72
2022/09/20 07:44:23;;;;;;;;;;;;;;;16.08;64.28;101492.81;5094203;28;19923;-73
2022/09/20 07:46:50;;;;;;;;;;;;;;;15.99;65.62;101487.25;5090916;28;20404;-73
2022/09/20 07:49:16;;;;;;;;;;;;;;;15.94;65.85;101487.53;5101955;28;19924;-73
2022/09/20 07:51:43;;;;;;;;;;;;;;;15.61;67.64;101491.38;5082291;28;19975;-73
2022/09/20 07:54:10;;;;;;;;;;;;;;;15.65;67.61;101487.63;5078978;28;20443;-73
2022/09/20 07:56:37;;;;;;;;;;;;;;;15.16;68.05;101493.16;5082264;28;19924;-74
2022/09/20 07:59:03;;;;;;;;;;;;;;;15.76;67.28;101490.47;5087472;28;19924;-74
2022/09/20 08:01:29;;;;;;;;;;;;;;;16.10;67.20;101497.16;5087282;28;19938;-72
2022/09/20 08:03:56;;;;;;;;;;;;;;;16.01;66.87;101506.50;5086296;28;20473;-72
2022/09/20 08:06:23;;;;;;;;;;;;;;;16.21;66.27;101502.63;5096973;28;19938;-73
2022/09/20 08:08:50;;;;;;;;;;;;;;;15.91;66.64;101505.38;5107109;28;19924;-73
2022/09/20 08:11:18;;;;;;;;;;;;;;;15.87;67.44;101506.50;5091827;28;19924;-73
2022/09/20 08:13:46;;;;;;;;;;;;;;;15.90;66.99;101514.25;5091500;28;20456;-73
2022/09/20 08:16:13;;;;;;;;;;;;;;;15.53;68.51;101510.34;5087874;28;19978;-73
2022/09/20 08:18:39;;;;;;;;;;;;;;;15.40;67.04;101512.88;5089263;28;19924;-73
2022/09/20 08:21:07;;;;;;;;;;;;;;;15.53;67.40;101524.44;5088656;28;19925;-73
2022/09/20 08:23:34;;;;;;;;;;;;;;;15.54;67.70;101520.00;5088096;28;19928;-75
2022/09/20 08:26:01;;;;;;;;;;;;;;;15.68;65.69;101521.78;5081709;28;20376;-73
2022/09/20 08:28:29;;;;;;;;;;;;;;;15.81;67.70;101523.63;5088495;28;19963;-73
2022/09/20 08:31:00;;;;;;;;;;;;;;;15.46;67.21;101535.41;5087093;28;19924;-73
2022/09/20 08:33:27;;;;;;;;;;;;;;;15.59;67.38;101531.97;5085678;28;19966;-71
2022/09/20 08:35:53;;;;;;;;;;;;;;;15.75;67.42;101536.34;5086912;28;20303;-72
2022/09/20 08:38:21;;;;;;;;;;;;;;;15.88;66.72;101537.31;5086717;28;19954;-72
2022/09/20 08:40:48;;;;;;;;;;;;;;;15.63;66.67;101527.34;5086162;28;19981;-72
2022/09/20 08:43:15;;;;;;;;;;;;;;;15.95;67.52;101534.22;5087505;28;20447;-72
2022/09/20 08:45:43;;;;;;;;;;;;;;;16.27;66.93;101529.53;5087888;28;19924;-72
2022/09/20 08:48:15;;;;;;;;;;;;;;;16.43;67.88;101532.94;5087371;28;20357;-72
2022/09/20 08:50:41;;;;;;;;;;;;;;;16.52;65.09;101537.63;5086927;28;19932;-72
2022/09/20 08:53:12;;;;;;;;;;;;;;;16.79;65.91;101524.44;5087113;28;19977;-73
2022/09/20 08:55:41;;;;;;;;;;;;;;;16.48;66.03;101530.81;5102394;28;20334;-74
2022/09/20 08:58:09;;;;;;;;;;;;;;;17.30;63.29;101527.25;5087611;28;19950;-75
2022/09/20 09:00:36;;;;;;;;;;;;;;;17.43;64.63;101531.63;5098638;28;19980;-69
2022/09/20 09:03:05;;;;;;;;;;;;;;;18.04;63.97;101540.69;5098281;28;19981;-68
2022/09/20 09:05:33;;;;;;;;;;;;;;;18.43;61.32;101542.34;5085804;28;19951;-68
2022/09/20 09:08:00;;;;;;;;;;;;;;;18.64;57.86;101539.97;5084343;28;20372;-68
2022/09/20 09:10:28;;;;;;;;;;;;;;;18.30;58.60;101542.34;5085956;28;19928;-69
2022/09/20 09:12:55;;;;;;;;;;;;;;;17.94;59.75;101544.94;5085774;28;20341;-69
2022/09/20 09:15:24;;;;;;;;;;;;;;;18.03;60.49;101554.94;5084985;28;19925;-69
2022/09/20 09:17:50;;;;;;;;;;;;;;;17.90;59.53;101551.44;5087568;28;19924;-69
2022/09/20 09:20:20;;;;;;;;;;;;;;;17.51;61.82;101545.19;5091618;28;19924;-69
2022/09/20 09:22:47;;;;;;;;;;;;;;;16.95;62.37;101559.59;5084417;28;20475;-69
2022/09/20 09:25:21;;;;;;;;;;;;;;;16.78;63.14;101559.81;5083667;28;20438;-69
2022/09/20 09:27:51;;;;;;;;;;;;;;;16.30;63.47;101553.16;5085563;28;19959;-69
2022/09/20 09:30:20;;;;;;;;;;;;;;;16.41;64.47;101558.63;5079710;28;20407;-69
2022/09/20 09:32:46;;;;;;;;;;;;;;;16.47;66.54;101557.41;5086583;28;19924;-69
2022/09/20 09:35:22;;;;;;;;;;;;;;;16.69;63.33;101563.06;5086358;28;19928;-69
2022/09/20 09:37:53;;;;;;;;;;;;;;;16.91;65.35;101568.69;5086868;28;20453;-69
2022/09/20 09:40:19;;;;;;;;;;;;;;;17.32;63.15;101563.31;5075987;28;19925;-69
2022/09/20 09:42:49;;;;;;;;;;;;;;;17.12;62.28;101565.56;5084127;28;19928;-69
2022/09/20 09:45:24;;;;;;;;;;;;;;;16.81;62.62;101569.41;5085735;28;20302;-69
2022/09/20 09:47:50;;;;;;;;;;;;;;;17.34;62.14;101563.19;5084968;28;19924;-69
2022/09/20 09:50:23;;;;;;;;;;;;;;;17.63;64.10;101561.25;5084721;28;19981;-68
2022/09/20 09:53:04;;;;;;;;;;;;;;;17.66;63.45;101569.03;5085289;28;19950;-68
2022/09/20 09:55:36;;;;;;;;;;;;;;;17.73;62.50;101573.81;5082758;28;19924;-68
2022/09/20 09:58:09;;;;;;;;;;;;;;;17.56;61.41;101565.25;5084762;28;19954;-68
2022/09/20 10:00:41;;;;;;;;;;;;;;;17.15;62.24;101571.53;5084457;28;20325;-68
2022/09/20 10:03:15;;;;;;;;;;;;;;;17.53;62.08;101575.13;5085100;28;19928;-68
2022/09/20 10:05:51;;;;;;;;;;;;;;;17.59;62.01;101570.41;5086773;28;19928;-68
2022/09/20 10:08:23;;;;;;;;;;;;;;;17.88;62.03;101579.88;5087808;28;19928;-69
2022/09/20 10:10:56;;;;;;;;;;;;;;;18.11;60.72;101576.47;5085339;28;19928;-68
2022/09/20 10:13:26;;;;;;;;;;;;;;;17.80;60.99;101580.41;5099253;28;19931;-68
2022/09/20 10:15:56;;;;;;;;;;;;;;;17.31;61.35;101576.66;5101649;28;19932;-68
2022/09/20 10:18:33;;;;;;;;;;;;;;;17.47;63.41;101580.84;5084291;28;19928;-69
2022/09/20 10:21:08;;;;;;;;;;;;;;;17.48;61.29;101574.56;5085424;28;19924;-69
2022/09/20 10:23:43;;;;;;;;;;;;;;;17.83;62.39;101576.69;5087109;28;19924;-69
2022/09/20 10:26:19;;;;;;;;;;;;;;;18.19;59.98;101576.78;5090847;28;20295;-69
2022/09/20 10:28:51;;;;;;;;;;;;;;;18.38;60.75;101576.34;5092061;28;19928;-69
2022/09/20 10:31:23;;;;;;;;;;;;;;;18.60;59.68;101567.69;5091025;28;20504;-69
2022/09/20 10:33:56;;;;;;;;;;;;;;;18.29;59.27;101572.50;5086815;28;19997;-68
2022/09/20 10:36:30;;;;;;;;;;;;;;;18.39;58.69;101572.72;5084833;28;19989;-68
2022/09/20 10:38:58;;;;;;;;;;;;;;;18.42;59.20;101577.81;5084750;28;19951;-68
2022/09/20 10:44:24;;;;;;;;;;;;;;;18.47;63.33;101573.88;5084904;28;19935;-68
2022/09/20 10:46:54;;;;;;;;;;;;;;;19.03;59.59;101579.56;5083370;28;19946;-68
2022/09/20 10:49:26;;;;;;;;;;;;;;;19.15;59.22;101573.34;5084187;28;19924;-68
2022/09/20 10:52:01;;;;;;;;;;;;;;;18.93;58.63;101582.06;5085935;28;19928;-68
2022/09/20 10:54:32;;;;;;;;;;;;;;;18.73;57.14;101589.78;5090622;28;19925;-68
2022/09/20 10:57:09;;;;;;;;;;;;;;;18.82;57.82;101589.97;5093018;28;19924;-68
2022/09/20 10:59:41;;;;;;;;;;;;;;;18.43;59.37;101588.34;5086663;28;20299;-69
2022/09/20 11:02:15;;;;;;;;;;;;;;;18.13;57.92;101590.50;5085492;28;20005;-68
2022/09/20 11:04:53;;;;;;;;;;;;;;;18.43;60.20;101584.81;5082995;28;19924;-68
2022/09/20 11:07:26;;;;;;;;;;;;;;;18.43;60.14;101591.00;5095046;28;20351;-68
2022/09/20 11:09:57;;;;;;;;;;;;;;;18.48;58.59;101594.16;5092254;28;19967;-68
2022/09/20 11:12:25;;;;;;;;;;;;;;;18.12;58.06;101599.41;5095076;28;19970;-68
2022/09/20 11:14:54;;;;;;;;;;;;;;;18.48;60.62;101593.31;5098232;28;20315;-68
2022/09/20 11:17:23;;;;;;;;;;;;;;;18.84;60.86;101596.03;5086545;28;20349;-68
2022/09/20 11:19:55;;;;;;;;;;;;;;;19.49;59.53;101594.78;5083678;28;19931;-68
2022/09/20 11:22:24;;;;;;;;;;;;;;;20.19;55.00;101585.72;5086055;28;20399;-68
2022/09/20 11:24:53;;;;;;;;;;;;;;;21.09;56.55;101581.16;5097761;28;19977;-68
2022/09/20 11:27:22;;;;;;;;;;;;;;;21.49;51.38;101576.91;5093880;28;19924;-68
2022/09/20 11:29:50;;;;;;;;;;;;;;;22.06;51.48;101584.44;5073508;28;19963;-68
2022/09/20 11:32:20;;;;;;;;;;;;;;;22.50;50.55;101577.06;5092843;28;19924;-68
2022/09/20 11:34:50;;;;;;;;;;;;;;;22.65;49.23;101583.72;5090793;28;19928;-68
2022/09/20 11:37:17;;;;;;;;;;;;;;;22.30;45.02;101587.66;5086833;28;19977;-68
2022/09/20 11:39:48;;;;;;;;;;;;;;;22.55;47.94;101593.50;5088976;28;19969;-68
2022/09/20 11:42:15;;;;;;;;;;;;;;;;;;5090454;28;19924;-68
2022/09/20 11:44:41;;;;;;;;;;;;;;;22.43;47.41;101578.59;5088178;28;20443;-68
2022/09/20 11:47:12;;;;;;;;;;;;;;;21.56;46.65;101567.41;5087864;28;20005;-69
2022/09/20 11:49:46;;;;;;;;;;;;;;;21.01;48.32;101587.13;5089759;28;19939;-69
2022/09/20 11:52:19;;;;;;;;;;;;;;;20.79;51.38;101592.50;5088899;28;20291;-68
2022/09/20 11:55:09;;;;;;;;;;;;;;;20.12;50.29;101583.66;5089289;28;19932;-68
2022/09/20 11:57:35;;;;;;;;;;;;;;;20.06;49.90;101582.34;5086890;28;19932;-68
2022/09/20 12:00:03;;;;;;;;;;;;;;;20.43;49.50;101584.81;5093450;28;20017;-69
2022/09/20 12:02:33;;;;;;;;;;;;;;;21.12;48.10;101576.44;5086840;28;19924;-69
2022/09/20 12:05:00;;;;;;;;;;;;;;;21.50;46.60;101580.41;5086188;28;19931;-69
2022/09/20 12:07:30;;;;;;;;;;;;;;;21.89;48.53;101573.50;5089162;28;19924;-69
2022/09/20 12:09:59;;;;;;;;;;;;;;;21.99;46.40;101574.44;5084733;28;19924;-69
2022/09/20 12:12:31;;;;;;;;;;;;;;;22.06;48.93;101579.09;5097917;28;19935;-69
2022/09/20 12:14:58;;;;;;;;;;;;;;;22.30;45.55;101574.31;5099892;28;19924;-69
2022/09/20 12:17:43;;;;;;;;;;;;;;;22.60;45.43;101580.59;5108731;28;19924;-69
2022/09/20 12:20:24;;;;;;;;;;;;;;;22.47;44.72;101571.97;5073313;28;19924;-69
2022/09/20 12:22:50;;;;;;;;;;;;;;;22.57;43.64;101564.84;5087218;28;19924;-69
2022/09/20 12:25:36;;;;;;;;;;;;;;;22.40;42.84;101573.47;5084709;28;19924;-69
2022/09/20 12:28:04;;;;;;;;;;;;;;;22.41;44.49;101573.34;5087929;28;19928;-69
2022/09/20 12:30:32;;;;;;;;;;;;;;;22.67;44.67;101568.38;5098038;28;19930;-69
2022/09/20 12:32:59;;;;;;;;;;;;;;;23.13;45.07;101562.44;5095136;28;19930;-69
2022/09/20 12:35:59;;;;;;;;;;;;;;;22.92;42.83;101572.38;5099618;28;20005;-69
2022/09/20 12:38:27;;;;;;;;;;;;;;;22.94;42.10;101571.28;5093980;28;19924;-69
2022/09/20 12:41:04;;;;;;;;;;;;;;;22.12;40.28;101575.06;5085645;28;20299;-69
2022/09/20 12:43:33;;;;;;;;;;;;;;;21.03;44.24;101577.16;5087234;28;19924;-69
2022/09/20 12:46:00;;;;;;;;;;;;;;;21.14;46.77;101571.81;5086155;28;19924;-69
2022/09/20 12:48:28;;;;;;;;;;;;;;;21.14;45.95;101573.63;5089152;28;19924;-69
2022/09/20 12:53:58;;;;;;;;;;;;;;;21.45;44.83;101564.78;5108057;28;19930;-68
2022/09/20 12:56:26;;;;;;;;;;;;;;;21.70;47.46;101567.06;5104732;28;19924;-70
2022/09/20 12:58:55;;;;;;;;;;;;;;;22.16;43.19;101569.31;5087836;28;19928;-69
2022/09/20 13:01:30;;;;;;;;;;;;;;;22.47;42.15;101574.66;5076676;28;19924;-69
2022/09/20 13:04:12;;;;;;;;;;;;;;;22.12;41.53;101567.91;5075019;28;20291;-69
2022/09/20 13:06:39;;;;;;;;;;;;;;;21.28;41.32;101566.22;5094960;28;19924;-69
2022/09/20 13:09:07;;;;;;;;;;;;;;;21.08;43.71;101560.78;5106589;28;19934;-69
2022/09/20 13:11:36;;;;;;;;;;;;;;;21.05;43.79;101572.56;5086769;28;20342;-69
2022/09/20 13:14:06;;;;;;;;;;;;;;;21.30;46.78;101568.72;5087566;28;20437;-68